Time;durP1;ratioP1;P1;durP2;ratioP2;P2;SDS_P1;SDS_P2;PMS_P1;PMS_P2;Temp;Humidity;BMP_temperature;BMP_pressure;BME280_temperature;BME280_humidity;BME280_pressure;Samples;Min_cycle;Max_cycle;Signal;HPM_P1;HPM_P2
2024/01/11 00:02:02;;;;;;;;;;;-5.60;99.90;;;;;;5010263;28;19957;-76
2024/01/11 00:04:48;;;;;;;;;;;-5.50;99.90;;;;;;5001137;28;19996;-76
2024/01/11 00:07:34;;;;;;;;;;;-5.50;99.90;;;;;;4994742;28;19996;-76
2024/01/11 00:10:20;;;;;;;;;;;-5.50;99.90;;;;;;5028615;28;20665;-75
2024/01/11 00:13:06;;;;;;;;;;;-5.50;99.90;;;;;;5004655;28;20293;-75
2024/01/11 00:15:52;;;;;;;;;;;-5.60;99.90;;;;;;5029762;28;20257;-76
2024/01/11 00:18:37;;;;;;;;;;;-5.70;99.90;;;;;;5015616;28;19928;-75
2024/01/11 00:21:23;;;;;;;;;;;-5.70;99.90;;;;;;5029321;28;20601;-75
2024/01/11 00:24:09;;;;;;;;;;;-5.70;99.90;;;;;;5039583;28;19948;-76
2024/01/11 00:26:55;;;;;;;;;;;-5.70;99.90;;;;;;5015724;28;20006;-76
2024/01/11 00:29:41;;;;;;;;;;;-5.70;99.90;;;;;;5030116;28;19917;-75
2024/01/11 00:32:27;;;;;;;;;;;-5.70;99.90;;;;;;5018727;28;20012;-75
2024/01/11 00:35:14;;;;;;;;;;;-5.70;99.90;;;;;;5029525;28;19913;-75
2024/01/11 00:38:00;;;;;;;;;;;-5.80;99.90;;;;;;5015984;28;19917;-76
2024/01/11 00:40:45;;;;;;;;;;;-5.70;99.90;;;;;;5027838;28;19933;-75
2024/01/11 00:43:31;;;;;;;;;;;-5.70;99.90;;;;;;5043246;28;20306;-75
2024/01/11 00:46:17;;;;;;;;;;;-5.80;99.90;;;;;;5028698;28;19949;-76
2024/01/11 00:49:03;;;;;;;;;;;-5.70;99.90;;;;;;5016325;28;19956;-76
2024/01/11 00:51:49;;;;;;;;;;;-5.70;99.90;;;;;;5015449;28;19913;-75
2024/01/11 00:54:44;;;;;;;;;;;-5.80;99.90;;;;;;5007370;28;20193;-75
2024/01/11 00:57:30;;;;;;;;;;;-5.80;99.90;;;;;;5015151;28;19932;-75
2024/01/11 01:00:16;;;;;;;;;;;-5.80;99.90;;;;;;5014794;28;20405;-76
2024/01/11 01:03:02;;;;;;;;;;;-5.90;99.90;;;;;;5026864;28;19924;-75
2024/01/11 01:05:48;;;;;;;;;;;-5.90;99.90;;;;;;5001038;28;19940;-76
2024/01/11 01:08:33;;;;;;;;;;;-5.90;99.90;;;;;;5042612;28;19913;-75
2024/01/11 01:11:19;;;;;;;;;;;-6.00;99.90;;;;;;5042135;28;19948;-76
2024/01/11 01:14:05;;;;;;;;;;;-5.90;99.90;;;;;;5002649;28;19987;-76
2024/01/11 01:16:51;;;;;;;;;;;-6.00;99.90;;;;;;5042174;28;19929;-75
2024/01/11 01:19:37;;;;;;;;;;;-6.00;99.90;;;;;;5042083;28;20338;-75
2024/01/11 01:22:23;;;;;;;;;;;-6.00;99.90;;;;;;4994764;28;19948;-75
2024/01/11 01:25:10;;;;;;;;;;;-6.00;99.90;;;;;;5013695;28;20028;-75
2024/01/11 01:27:56;;;;;;;;;;;-6.00;99.90;;;;;;5013682;28;19929;-75
2024/01/11 01:30:42;;;;;;;;;;;-6.00;99.90;;;;;;5026705;28;19917;-76
2024/01/11 01:33:29;;;;;;;;;;;-6.00;99.90;;;;;;5013380;28;20250;-75
2024/01/11 01:36:15;;;;;;;;;;;-6.00;99.90;;;;;;5041558;28;19921;-75
2024/01/11 01:39:01;;;;;;;;;;;-6.00;99.90;;;;;;5014567;28;19949;-76
2024/01/11 01:41:47;;;;;;;;;;;-6.00;99.90;;;;;;5015784;28;19921;-76
2024/01/11 01:44:33;;;;;;;;;;;-6.00;99.90;;;;;;4996744;28;19917;-76
2024/01/11 01:47:19;;;;;;;;;;;-6.00;99.90;;;;;;5015160;28;20334;-75
2024/01/11 01:50:05;;;;;;;;;;;-6.10;99.90;;;;;;5014296;28;19928;-75
2024/01/11 01:52:51;;;;;;;;;;;-6.10;99.90;;;;;;5040993;28;20013;-75
2024/01/11 01:55:37;;;;;;;;;;;-6.10;99.90;;;;;;5028430;28;20310;-75
2024/01/11 01:58:23;;;;;;;;;;;-6.10;99.90;;;;;;5011492;28;19917;-75
2024/01/11 02:01:08;;;;;;;;;;;-6.10;99.90;;;;;;5026999;28;19924;-75
2024/01/11 02:03:54;;;;;;;;;;;-6.10;99.90;;;;;;5032710;28;19999;-75
2024/01/11 02:06:40;;;;;;;;;;;-6.10;99.90;;;;;;5028412;28;19917;-76
2024/01/11 02:09:26;;;;;;;;;;;-6.10;99.90;;;;;;5015567;28;20393;-75
2024/01/11 02:12:12;;;;;;;;;;;-6.20;99.90;;;;;;5028202;28;19922;-76
2024/01/11 02:14:58;;;;;;;;;;;-6.20;99.90;;;;;;5027159;28;19917;-75
2024/01/11 02:17:44;;;;;;;;;;;-6.20;99.90;;;;;;5012355;28;19921;-75
2024/01/11 02:20:31;;;;;;;;;;;-6.20;99.90;;;;;;5013065;28;19914;-76
2024/01/11 02:23:21;;;;;;;;;;;-6.30;99.90;;;;;;4993215;28;20537;-76
2024/01/11 02:26:06;;;;;;;;;;;-6.20;99.90;;;;;;5011933;28;20716;-76
2024/01/11 02:28:52;;;;;;;;;;;-6.20;99.90;;;;;;5000688;28;19913;-76
2024/01/11 02:31:38;;;;;;;;;;;-5.50;99.90;;;;;;5014452;28;19914;-76
2024/01/11 02:34:24;;;;;;;;;;;-6.30;99.90;;;;;;4995052;28;19922;-76
2024/01/11 02:37:10;;;;;;;;;;;-6.30;99.90;;;;;;5000231;28;19917;-75
2024/01/11 02:39:56;;;;;;;;;;;-6.30;99.90;;;;;;5027952;28;19932;-75
2024/01/11 02:42:42;;;;;;;;;;;-6.40;99.90;;;;;;5007607;28;20393;-76
2024/01/11 02:45:28;;;;;;;;;;;-6.40;99.90;;;;;;5008006;28;19957;-76
2024/01/11 02:48:14;;;;;;;;;;;-6.50;99.90;;;;;;5022424;28;19921;-78
2024/01/11 02:51:00;;;;;;;;;;;-6.50;99.90;;;;;;5008728;28;20571;-78
2024/01/11 02:53:46;;;;;;;;;;;-6.50;99.90;;;;;;5009873;28;19917;-78
2024/01/11 02:56:32;;;;;;;;;;;-6.50;99.90;;;;;;5014726;28;20302;-78
2024/01/11 02:59:17;;;;;;;;;;;-6.40;99.90;;;;;;5014041;28;19928;-78
2024/01/11 03:02:04;;;;;;;;;;;-6.40;99.90;;;;;;5027973;28;19913;-78
2024/01/11 03:04:49;;;;;;;;;;;-6.40;99.90;;;;;;5041034;28;19918;-78
2024/01/11 03:07:35;;;;;;;;;;;-6.30;99.90;;;;;;5040966;28;19921;-78
2024/01/11 03:10:21;;;;;;;;;;;-6.30;99.90;;;;;;5006635;28;19918;-78
2024/01/11 03:13:07;;;;;;;;;;;-6.30;99.90;;;;;;5006811;28;20005;-79
2024/01/11 03:15:53;;;;;;;;;;;-6.30;99.90;;;;;;5011206;28;19913;-78
2024/01/11 03:18:39;;;;;;;;;;;-6.30;99.90;;;;;;5013983;28;19918;-78
2024/01/11 03:21:25;;;;;;;;;;;-6.30;99.90;;;;;;5007952;28;19972;-78
2024/01/11 03:24:11;;;;;;;;;;;-6.30;99.90;;;;;;5023131;28;19928;-78
2024/01/11 03:26:56;;;;;;;;;;;-6.30;99.90;;;;;;5002642;28;19918;-79
2024/01/11 03:29:43;;;;;;;;;;;-6.30;99.90;;;;;;5018217;28;19952;-79
2024/01/11 03:32:29;;;;;;;;;;;-6.30;99.90;;;;;;5017848;28;19913;-78
2024/01/11 03:35:15;;;;;;;;;;;-6.30;99.90;;;;;;5017066;28;20000;-79
2024/01/11 03:38:00;;;;;;;;;;;-6.30;99.90;;;;;;5016043;28;19921;-79
2024/01/11 03:40:46;;;;;;;;;;;-6.30;99.90;;;;;;5016774;28;20302;-78
2024/01/11 03:43:32;;;;;;;;;;;-6.40;99.90;;;;;;5003156;28;19989;-78
2024/01/11 03:46:20;;;;;;;;;;;-6.40;99.90;;;;;;5043868;28;19913;-77
2024/01/11 03:49:10;;;;;;;;;;;-6.30;99.90;;;;;;5016872;28;19921;-77
2024/01/11 03:51:55;;;;;;;;;;;-6.30;99.90;;;;;;5041677;28;19928;-77
2024/01/11 03:54:41;;;;;;;;;;;-6.30;99.90;;;;;;5014717;28;19918;-77
2024/01/11 03:57:27;;;;;;;;;;;-6.30;99.90;;;;;;5016358;28;19929;-77
2024/01/11 04:00:13;;;;;;;;;;;-6.30;99.90;;;;;;5043832;28;19914;-77
2024/01/11 04:02:59;;;;;;;;;;;-6.30;99.90;;;;;;5009142;28;19922;-77
2024/01/11 04:05:45;;;;;;;;;;;-6.30;99.90;;;;;;5028030;28;19945;-77
2024/01/11 04:08:32;;;;;;;;;;;-6.30;99.90;;;;;;5016779;28;19914;-77
2024/01/11 04:11:18;;;;;;;;;;;-6.30;99.90;;;;;;5016461;28;19917;-78
2024/01/11 04:14:06;;;;;;;;;;;-6.40;99.90;;;;;;5043347;28;20296;-78
2024/01/11 04:16:52;;;;;;;;;;;-6.40;99.90;;;;;;5029057;28;19917;-77
2024/01/11 04:19:39;;;;;;;;;;;-6.40;99.90;;;;;;5043550;28;19918;-76
2024/01/11 04:22:25;;;;;;;;;;;-6.40;99.90;;;;;;5016677;28;19925;-76
2024/01/11 04:25:11;;;;;;;;;;;-6.40;99.90;;;;;;5016731;28;19992;-76
2024/01/11 04:27:58;;;;;;;;;;;-6.40;99.90;;;;;;5016170;28;19913;-76
2024/01/11 04:30:47;;;;;;;;;;;-6.30;99.90;;;;;;5016419;28;20356;-76
2024/01/11 04:33:32;;;;;;;;;;;-6.30;99.90;;;;;;5017067;28;19913;-76
2024/01/11 04:36:18;;;;;;;;;;;-6.40;99.90;;;;;;5015173;28;19921;-76
2024/01/11 04:39:06;;;;;;;;;;;-6.40;99.90;;;;;;5001876;28;19917;-75
2024/01/11 04:41:51;;;;;;;;;;;-6.40;99.90;;;;;;5042854;28;19953;-76
2024/01/11 04:44:38;;;;;;;;;;;-6.40;99.90;;;;;;5043565;28;19913;-76
2024/01/11 04:47:25;;;;;;;;;;;-6.40;99.90;;;;;;5016005;28;19917;-76
2024/01/11 04:50:11;;;;;;;;;;;-6.40;99.90;;;;;;5010141;28;19914;-76
2024/01/11 04:52:58;;;;;;;;;;;-6.40;99.90;;;;;;5005832;28;20322;-76
2024/01/11 04:55:43;;;;;;;;;;;-6.40;99.90;;;;;;5014783;28;19918;-76
2024/01/11 04:58:29;;;;;;;;;;;-6.40;99.90;;;;;;5014877;28;20322;-76
2024/01/11 05:01:15;;;;;;;;;;;-6.40;99.90;;;;;;5042768;28;19917;-76
2024/01/11 05:04:01;;;;;;;;;;;-6.40;99.90;;;;;;5042849;28;19921;-76
2024/01/11 05:06:47;;;;;;;;;;;-6.40;99.90;;;;;;5041741;28;19913;-76
2024/01/11 05:09:34;;;;;;;;;;;-6.40;99.90;;;;;;5042224;28;19914;-76
2024/01/11 05:12:20;;;;;;;;;;;-6.40;99.90;;;;;;5041713;28;19914;-76
2024/01/11 05:15:07;;;;;;;;;;;-6.40;99.90;;;;;;5016412;28;19929;-76
2024/01/11 05:17:54;;;;;;;;;;;-6.40;99.90;;;;;;5015045;28;19928;-76
2024/01/11 05:20:40;;;;;;;;;;;-6.40;99.90;;;;;;5014757;28;19924;-76
2024/01/11 05:23:26;;;;;;;;;;;-6.40;99.90;;;;;;5004400;28;20977;-76
2024/01/11 05:26:16;;;;;;;;;;;-6.40;99.90;;;;;;5042332;28;20000;-76
2024/01/11 05:29:04;;;;;;;;;;;-6.50;99.90;;;;;;5042269;28;19913;-76
2024/01/11 05:31:50;;;;;;;;;;;-6.40;99.90;;;;;;5041410;28;20392;-76
2024/01/11 05:34:36;;;;;;;;;;;-6.40;99.90;;;;;;5015209;28;19917;-76
2024/01/11 05:37:22;;;;;;;;;;;-6.50;99.90;;;;;;5028752;28;19921;-76
2024/01/11 05:40:08;;;;;;;;;;;-6.50;99.90;;;;;;4995540;28;20242;-76
2024/01/11 05:42:54;;;;;;;;;;;-6.50;99.90;;;;;;5022525;28;19940;-76
2024/01/11 05:45:39;;;;;;;;;;;-6.40;99.90;;;;;;5036827;28;19984;-76
2024/01/11 05:48:25;;;;;;;;;;;-6.50;99.90;;;;;;4996007;28;19914;-76
2024/01/11 05:51:12;;;;;;;;;;;-6.50;99.90;;;;;;5030324;28;19995;-76
2024/01/11 05:53:57;;;;;;;;;;;-6.50;99.90;;;;;;5028287;28;19944;-76
2024/01/11 05:56:44;;;;;;;;;;;-6.40;99.90;;;;;;5013722;28;20318;-76
2024/01/11 05:59:30;;;;;;;;;;;-6.40;99.90;;;;;;5001644;28;19918;-76
2024/01/11 06:02:16;;;;;;;;;;;-6.40;99.90;;;;;;5014126;28;20004;-76
2024/01/11 06:05:04;;;;;;;;;;;-6.40;99.90;;;;;;5014411;28;20239;-76
2024/01/11 06:07:49;;;;;;;;;;;-6.40;99.90;;;;;;4999653;28;19948;-76
2024/01/11 06:10:35;;;;;;;;;;;-6.40;99.90;;;;;;5014984;28;19917;-76
2024/01/11 06:13:21;;;;;;;;;;;-6.40;99.90;;;;;;5013878;28;19924;-76
2024/01/11 06:16:07;;;;;;;;;;;-6.30;99.90;;;;;;5014367;28;20360;-76
2024/01/11 06:18:53;;;;;;;;;;;-6.30;99.90;;;;;;5027223;28;19913;-76
2024/01/11 06:21:40;;;;;;;;;;;-6.30;99.90;;;;;;5014511;28;19996;-76
2024/01/11 06:24:26;;;;;;;;;;;-6.40;99.90;;;;;;4994650;28;19922;-76
2024/01/11 06:27:12;;;;;;;;;;;-6.40;99.90;;;;;;4993699;28;19918;-75
2024/01/11 06:29:58;;;;;;;;;;;-6.40;99.90;;;;;;4995495;28;19913;-76
2024/01/11 06:32:44;;;;;;;;;;;-6.40;99.90;;;;;;4995610;28;20250;-76
2024/01/11 06:35:31;;;;;;;;;;;-6.40;99.90;;;;;;4995136;28;19926;-76
2024/01/11 06:38:16;;;;;;;;;;;-6.40;99.90;;;;;;4994975;28;20334;-76
2024/01/11 06:41:03;;;;;;;;;;;-6.50;99.90;;;;;;4999820;28;19918;-76
2024/01/11 06:43:49;;;;;;;;;;;-6.50;99.90;;;;;;5013232;28;20007;-76
2024/01/11 06:46:36;;;;;;;;;;;-6.50;99.90;;;;;;4996851;28;19960;-75
2024/01/11 06:49:21;;;;;;;;;;;-6.50;99.90;;;;;;4994482;28;20294;-75
2024/01/11 06:52:07;;;;;;;;;;;-6.50;99.90;;;;;;5025969;28;19914;-75
2024/01/11 06:54:53;;;;;;;;;;;-6.50;99.90;;;;;;5028102;28;20041;-75
2024/01/11 06:57:40;;;;;;;;;;;-6.50;99.90;;;;;;5014101;28;19918;-75
2024/01/11 07:00:26;;;;;;;;;;;-6.40;99.90;;;;;;5013357;28;19918;-75
2024/01/11 07:03:12;;;;;;;;;;;-6.40;99.90;;;;;;5017792;28;20411;-76
2024/01/11 07:05:58;;;;;;;;;;;-6.30;99.90;;;;;;5045715;28;19914;-74
2024/01/11 07:08:44;;;;;;;;;;;-6.30;99.90;;;;;;5030053;28;19921;-74
2024/01/11 07:11:30;;;;;;;;;;;-6.30;99.90;;;;;;5004885;28;19913;-75
2024/01/11 07:14:16;;;;;;;;;;;-6.30;99.90;;;;;;5016856;28;19948;-75
2024/01/11 07:17:03;;;;;;;;;;;-6.20;99.90;;;;;;5018069;28;20311;-75
2024/01/11 07:19:50;;;;;;;;;;;-6.20;99.90;;;;;;5025702;28;20254;-75
2024/01/11 07:22:35;;;;;;;;;;;-6.20;99.90;;;;;;5017746;28;19929;-76
2024/01/11 07:25:21;;;;;;;;;;;-6.20;99.90;;;;;;5017996;28;20593;-76
2024/01/11 07:28:07;;;;;;;;;;;-6.20;99.90;;;;;;5008913;28;19914;-76
2024/01/11 07:30:53;;;;;;;;;;;-6.20;99.90;;;;;;5037230;28;20345;-76
2024/01/11 07:33:40;;;;;;;;;;;-6.20;99.90;;;;;;4997061;28;19913;-75
2024/01/11 07:36:26;;;;;;;;;;;-6.20;99.90;;;;;;5018377;28;19921;-75
2024/01/11 07:39:12;;;;;;;;;;;-6.20;99.90;;;;;;5018038;28;19922;-75
2024/01/11 07:41:58;;;;;;;;;;;-6.20;99.90;;;;;;5030585;28;20318;-75
2024/01/11 07:44:43;;;;;;;;;;;-6.20;99.90;;;;;;5045275;28;19924;-75
2024/01/11 07:47:29;;;;;;;;;;;-6.20;99.90;;;;;;5043550;28;19944;-75
2024/01/11 07:50:15;;;;;;;;;;;-6.20;99.90;;;;;;5019759;28;19976;-75
2024/01/11 07:53:01;;;;;;;;;;;-6.20;99.90;;;;;;5007880;28;19914;-77
2024/01/11 07:55:47;;;;;;;;;;;-6.20;99.90;;;;;;5026447;28;19928;-77
2024/01/11 07:58:35;;;;;;;;;;;-6.20;99.90;;;;;;5016812;28;19996;-77
2024/01/11 08:01:21;;;;;;;;;;;-6.20;99.90;;;;;;5044185;28;19918;-75
2024/01/11 08:04:07;;;;;;;;;;;-6.20;99.90;;;;;;5042677;28;19963;-75
2024/01/11 08:06:53;;;;;;;;;;;-6.00;99.90;;;;;;5004166;28;20302;-75
2024/01/11 08:09:44;;;;;;;;;;;-6.00;99.90;;;;;;5004713;28;19924;-75
2024/01/11 08:12:33;;;;;;;;;;;-6.00;99.90;;;;;;5004497;28;19918;-75
2024/01/11 08:15:19;;;;;;;;;;;-5.90;99.90;;;;;;5001340;28;19920;-76
2024/01/11 08:18:05;;;;;;;;;;;-5.90;99.90;;;;;;5016804;28;19921;-76
2024/01/11 08:20:50;;;;;;;;;;;-5.90;99.90;;;;;;5008554;28;19997;-75
2024/01/11 08:23:44;;;;;;;;;;;-5.90;99.90;;;;;;5029840;28;20237;-76
2024/01/11 08:26:30;;;;;;;;;;;-5.80;99.90;;;;;;5027050;28;19917;-74
2024/01/11 08:29:18;;;;;;;;;;;-5.80;99.90;;;;;;5027615;28;19932;-76
2024/01/11 08:32:04;;;;;;;;;;;-5.90;99.90;;;;;;5043264;28;20348;-75
2024/01/11 08:34:51;;;;;;;;;;;-5.80;99.90;;;;;;5016110;28;19956;-75
2024/01/11 08:37:37;;;;;;;;;;;-5.80;99.90;;;;;;5015793;28;19918;-75
2024/01/11 08:40:23;;;;;;;;;;;-5.80;99.90;;;;;;4999042;28;20038;-75
2024/01/11 08:43:10;;;;;;;;;;;-5.70;99.90;;;;;;5042827;28;20322;-75
2024/01/11 08:45:57;;;;;;;;;;;-5.70;99.90;;;;;;5014693;28;19921;-75
2024/01/11 08:48:44;;;;;;;;;;;-5.80;99.90;;;;;;4996922;28;19921;-75
2024/01/11 08:51:30;;;;;;;;;;;-5.70;99.90;;;;;;5021689;28;19921;-75
2024/01/11 08:54:16;;;;;;;;;;;-5.60;99.90;;;;;;5010210;28;20461;-76
2024/01/11 08:57:03;;;;;;;;;;;-5.60;99.90;;;;;;5027306;28;19921;-76
2024/01/11 08:59:49;;;;;;;;;;;-5.50;99.90;;;;;;4985194;28;20330;-75
2024/01/11 09:02:35;;;;;;;;;;;-5.60;99.90;;;;;;5040369;28;19971;-76
2024/01/11 09:05:21;;;;;;;;;;;-5.50;99.90;;;;;;5041408;28;20354;-75
2024/01/11 09:08:08;;;;;;;;;;;-5.50;99.90;;;;;;5014924;28;19917;-76
2024/01/11 09:10:56;;;;;;;;;;;-5.50;99.90;;;;;;5002679;28;19944;-76
2024/01/11 09:13:41;;;;;;;;;;;-5.40;99.90;;;;;;5043218;28;19925;-76
2024/01/11 09:16:27;;;;;;;;;;;-5.40;99.90;;;;;;5028428;28;19921;-76
2024/01/11 09:19:13;;;;;;;;;;;-5.30;99.90;;;;;;5014940;28;19913;-75
2024/01/11 09:21:59;;;;;;;;;;;-5.20;99.90;;;;;;5013488;28;19929;-75
2024/01/11 09:24:45;;;;;;;;;;;-5.20;99.90;;;;;;5013595;28;19914;-75
2024/01/11 09:27:31;;;;;;;;;;;-5.20;99.90;;;;;;5029099;28;19918;-76
2024/01/11 09:30:17;;;;;;;;;;;-5.10;99.90;;;;;;5029114;28;19921;-76
2024/01/11 09:33:04;;;;;;;;;;;-5.10;99.90;;;;;;5028931;28;19913;-76
2024/01/11 09:35:50;;;;;;;;;;;-5.00;99.90;;;;;;5002674;28;19913;-76
2024/01/11 09:38:37;;;;;;;;;;;-5.00;99.90;;;;;;5008894;28;19932;-76
2024/01/11 09:41:23;;;;;;;;;;;-4.90;99.90;;;;;;5022047;28;19914;-76
2024/01/11 09:44:09;;;;;;;;;;;-4.80;99.90;;;;;;5033929;28;19913;-75
2024/01/11 09:46:55;;;;;;;;;;;-4.70;99.90;;;;;;5041492;28;19975;-75
2024/01/11 09:49:42;;;;;;;;;;;-4.70;99.90;;;;;;5042236;28;20250;-75
2024/01/11 09:52:28;;;;;;;;;;;-4.60;99.90;;;;;;5027959;28;19913;-77
2024/01/11 09:55:14;;;;;;;;;;;-4.60;99.90;;;;;;4996353;28;19956;-75
2024/01/11 09:58:00;;;;;;;;;;;-4.50;99.90;;;;;;5009525;28;19922;-75
2024/01/11 10:00:49;;;;;;;;;;;-4.30;99.90;;;;;;5012905;28;19937;-76
2024/01/11 10:03:36;;;;;;;;;;;-4.30;99.90;;;;;;5014397;28;19944;-75
2024/01/11 10:06:23;;;;;;;;;;;-4.20;99.90;;;;;;5014768;28;20230;-76
2024/01/11 10:09:10;;;;;;;;;;;-4.00;99.90;;;;;;5014237;28;19940;-75
2024/01/11 10:11:56;;;;;;;;;;;-4.00;99.90;;;;;;5015185;28;20028;-75
2024/01/11 10:14:43;;;;;;;;;;;-3.80;99.90;;;;;;5015242;28;19917;-76
2024/01/11 10:17:30;;;;;;;;;;;-3.70;99.90;;;;;;5001584;28;19979;-75
2024/01/11 10:20:16;;;;;;;;;;;-3.60;99.90;;;;;;5001566;28;19921;-75
2024/01/11 10:23:02;;;;;;;;;;;-3.70;99.90;;;;;;5013420;28;19956;-75
2024/01/11 10:25:48;;;;;;;;;;;-3.90;99.90;;;;;;5008158;28;20345;-75
2024/01/11 10:28:37;;;;;;;;;;;-3.80;99.90;;;;;;5021286;28;19914;-76
2024/01/11 10:31:27;;;;;;;;;;;-3.80;99.90;;;;;;5008086;28;20599;-76
2024/01/11 10:34:13;;;;;;;;;;;-3.70;99.90;;;;;;5010612;28;19914;-75
2024/01/11 10:36:59;;;;;;;;;;;-3.90;99.90;;;;;;5012857;28;19917;-76
2024/01/11 10:39:45;;;;;;;;;;;-3.80;99.90;;;;;;5013861;28;19925;-75
2024/01/11 10:42:31;;;;;;;;;;;-3.80;99.90;;;;;;5011288;28;19917;-75
2024/01/11 10:45:17;;;;;;;;;;;-3.80;99.90;;;;;;5013886;28;19921;-80
2024/01/11 10:48:04;;;;;;;;;;;-3.70;99.90;;;;;;5012721;28;19952;-75
2024/01/11 10:50:52;;;;;;;;;;;-3.70;99.90;;;;;;5025222;28;19983;-75
2024/01/11 10:53:42;;;;;;;;;;;-3.70;99.90;;;;;;5012619;28;19913;-75
2024/01/11 10:56:28;;;;;;;;;;;-3.90;99.90;;;;;;5011353;28;19921;-75
2024/01/11 10:59:14;;;;;;;;;;;-3.90;99.90;;;;;;4979416;28;19968;-75
2024/01/11 11:02:12;;;;;;;;;;;-3.80;99.90;;;;;;5019538;28;20008;-74
2024/01/11 11:04:57;;;;;;;;;;;-3.70;99.90;;;;;;5012674;28;19944;-75
2024/01/11 11:07:44;;;;;;;;;;;-3.70;99.90;;;;;;5013202;28;20263;-75
2024/01/11 11:10:30;;;;;;;;;;;-3.60;99.90;;;;;;5009274;28;19922;-75
2024/01/11 11:13:16;;;;;;;;;;;-3.60;99.90;;;;;;5040555;28;19983;-75
2024/01/11 11:16:03;;;;;;;;;;;-3.50;99.90;;;;;;4999864;28;19957;-75
2024/01/11 11:18:51;;;;;;;;;;;-3.50;99.90;;;;;;4999150;28;19926;-75
2024/01/11 11:21:43;;;;;;;;;;;-3.50;99.90;;;;;;5019962;28;19922;-75
2024/01/11 11:24:29;;;;;;;;;;;-3.50;99.90;;;;;;5020660;28;19929;-75
2024/01/11 11:27:16;;;;;;;;;;;-3.40;99.90;;;;;;5006918;28;19925;-75
2024/01/11 11:30:04;;;;;;;;;;;-3.50;99.90;;;;;;5019984;28;19914;-75
2024/01/11 11:32:49;;;;;;;;;;;-3.40;99.90;;;;;;5026092;28;20557;-75
2024/01/11 11:35:36;;;;;;;;;;;-3.40;99.90;;;;;;4997951;28;20004;-75
2024/01/11 11:38:22;;;;;;;;;;;-3.30;99.90;;;;;;5026870;28;19933;-75
2024/01/11 11:41:10;;;;;;;;;;;-3.40;99.90;;;;;;5012402;28;19972;-79
2024/01/11 11:44:00;;;;;;;;;;;-3.30;99.90;;;;;;5014036;28;19944;-75
2024/01/11 11:46:47;;;;;;;;;;;-3.30;99.90;;;;;;5013589;28;20424;-76
2024/01/11 11:49:52;;;;;;;;;;;-3.30;99.90;;;;;;5043381;28;19914;-75
2024/01/11 11:52:38;;;;;;;;;;;-3.30;99.90;;;;;;5038151;28;20445;-75
2024/01/11 11:55:28;;;;;;;;;;;-3.30;99.90;;;;;;5015693;28;19953;-75
2024/01/11 11:58:14;;;;;;;;;;;-3.20;99.90;;;;;;5015330;28;19967;-75
2024/01/11 12:01:00;;;;;;;;;;;-3.20;99.90;;;;;;5023429;28;19949;-75
2024/01/11 12:03:49;;;;;;;;;;;-3.20;99.90;;;;;;5023020;28;19972;-75
2024/01/11 12:06:35;;;;;;;;;;;-3.20;99.90;;;;;;5028509;28;20238;-75
2024/01/11 12:09:23;;;;;;;;;;;-3.30;99.90;;;;;;4997862;28;19922;-75
2024/01/11 12:12:09;;;;;;;;;;;-3.30;99.90;;;;;;4996838;28;19913;-75
2024/01/11 12:14:55;;;;;;;;;;;-3.20;99.90;;;;;;5009233;28;19960;-75
2024/01/11 12:17:42;;;;;;;;;;;-3.20;99.90;;;;;;4997807;28;20603;-75
2024/01/11 12:20:28;;;;;;;;;;;-3.20;99.90;;;;;;5022162;28;19918;-75
2024/01/11 12:23:14;;;;;;;;;;;-3.10;99.90;;;;;;5011605;28;19931;-75
2024/01/11 12:26:07;;;;;;;;;;;-3.10;99.90;;;;;;5007076;28;19964;-75
2024/01/11 12:28:53;;;;;;;;;;;-3.20;99.90;;;;;;5022340;28;19918;-75
2024/01/11 12:31:39;;;;;;;;;;;-3.10;99.90;;;;;;5009254;28;20009;-75
2024/01/11 12:34:28;;;;;;;;;;;-3.00;99.90;;;;;;5016682;28;20090;-75
2024/01/11 12:37:15;;;;;;;;;;;-3.00;99.90;;;;;;5014521;28;19947;-75
2024/01/11 12:40:01;;;;;;;;;;;-3.00;99.90;;;;;;5014715;28;19956;-75
2024/01/11 12:42:51;;;;;;;;;;;-2.90;99.90;;;;;;5017142;28;19917;-75
2024/01/11 12:45:37;;;;;;;;;;;-2.90;99.90;;;;;;5029655;28;19921;-75
2024/01/11 12:48:24;;;;;;;;;;;-3.00;99.90;;;;;;5023154;28;19914;-75
2024/01/11 12:51:11;;;;;;;;;;;-2.90;99.90;;;;;;5015871;28;19953;-75
2024/01/11 12:53:57;;;;;;;;;;;-2.90;99.90;;;;;;5016433;28;19949;-75
2024/01/11 12:56:44;;;;;;;;;;;-2.90;99.90;;;;;;5041276;28;19964;-75
2024/01/11 12:59:30;;;;;;;;;;;-2.80;99.90;;;;;;5014983;28;20223;-75
2024/01/11 13:02:17;;;;;;;;;;;-2.80;99.90;;;;;;4995248;28;19925;-75
2024/01/11 13:05:03;;;;;;;;;;;-2.70;99.90;;;;;;5030243;28;19972;-75
2024/01/11 13:07:50;;;;;;;;;;;-2.70;99.90;;;;;;5043350;28;19918;-75
2024/01/11 13:10:36;;;;;;;;;;;-2.70;99.90;;;;;;5042468;28;19917;-75
2024/01/11 13:13:22;;;;;;;;;;;-2.60;99.90;;;;;;5023043;28;20361;-75
2024/01/11 13:16:14;;;;;;;;;;;-2.60;99.90;;;;;;5022431;28;19968;-75
2024/01/11 13:19:00;;;;;;;;;;;-2.50;99.90;;;;;;4995550;28;19940;-75
2024/01/11 13:21:45;;;;;;;;;;;-2.50;99.90;;;;;;5009181;28;20001;-75
2024/01/11 13:24:31;;;;;;;;;;;-2.50;99.90;;;;;;5008333;28;19921;-75
2024/01/11 13:27:17;;;;;;;;;;;-2.40;99.90;;;;;;5012580;28;19918;-75
2024/01/11 13:30:03;;;;;;;;;;;-2.40;99.90;;;;;;5001183;28;20287;-75
2024/01/11 13:32:50;;;;;;;;;;;-2.30;99.90;;;;;;5014634;28;19976;-75
2024/01/11 13:35:37;;;;;;;;;;;-2.30;99.90;;;;;;5041355;28;19918;-75
2024/01/11 13:38:22;;;;;;;;;;;-2.20;99.90;;;;;;5013843;28;19921;-75
2024/01/11 13:41:08;;;;;;;;;;;-2.20;99.90;;;;;;4995432;28;20065;-75
2024/01/11 13:43:54;;;;;;;;;;;-2.20;99.90;;;;;;5019382;28;20199;-75
2024/01/11 13:46:40;;;;;;;;;;;-2.20;99.90;;;;;;5014590;28;19997;-75
2024/01/11 13:49:26;;;;;;;;;;;-2.20;99.90;;;;;;5028142;28;20000;-75
2024/01/11 13:52:12;;;;;;;;;;;-2.10;99.90;;;;;;5039694;28;20356;-75
2024/01/11 13:54:58;;;;;;;;;;;-2.10;99.90;;;;;;5014708;28;19928;-75
2024/01/11 13:57:43;;;;;;;;;;;-2.10;99.90;;;;;;5014134;28;19928;-75
2024/01/11 14:00:29;;;;;;;;;;;-2.00;99.90;;;;;;5011275;28;20503;-75
2024/01/11 14:03:15;;;;;;;;;;;-2.00;99.90;;;;;;4982611;28;19945;-77
2024/01/11 14:06:04;;;;;;;;;;;-2.00;99.90;;;;;;5004886;28;19971;-77
2024/01/11 14:08:50;;;;;;;;;;;-2.00;99.90;;;;;;5027439;28;19921;-76
2024/01/11 14:11:35;;;;;;;;;;;-2.00;99.90;;;;;;5014243;28;19913;-76
2024/01/11 14:14:23;;;;;;;;;;;-2.00;99.90;;;;;;5028176;28;19925;-76
2024/01/11 14:17:09;;;;;;;;;;;-1.90;99.90;;;;;;5014224;28;20297;-76
2024/01/11 14:19:55;;;;;;;;;;;-2.00;99.90;;;;;;5014565;28;19921;-76
2024/01/11 14:22:49;;;;;;;;;;;-1.90;99.90;;;;;;5041318;28;20012;-76
2024/01/11 14:25:36;;;;;;;;;;;-1.90;99.90;;;;;;4995292;28;19918;-76
2024/01/11 14:28:42;;;;;;;;;;;-1.80;99.90;;;;;;4997997;28;20301;-77
2024/01/11 14:31:29;;;;;;;;;;;-1.80;99.90;;;;;;5021985;28;19964;-77
2024/01/11 14:34:14;;;;;;;;;;;-1.80;99.90;;;;;;4995010;28;19926;-76
2024/01/11 14:37:00;;;;;;;;;;;-1.70;99.90;;;;;;5012263;28;20322;-77
2024/01/11 14:39:46;;;;;;;;;;;-1.70;99.90;;;;;;5000495;28;19995;-77
2024/01/11 14:42:33;;;;;;;;;;;-1.70;99.90;;;;;;4993430;28;19918;-76
2024/01/11 14:45:19;;;;;;;;;;;-1.70;99.90;;;;;;5024314;28;20326;-77
2024/01/11 14:48:05;;;;;;;;;;;-1.70;99.90;;;;;;5000535;28;19983;-76
2024/01/11 14:50:56;;;;;;;;;;;-1.70;99.90;;;;;;5013453;28;20004;-77
2024/01/11 14:53:42;;;;;;;;;;;-1.60;99.90;;;;;;5023795;28;20249;-77
2024/01/11 14:56:28;;;;;;;;;;;-1.50;99.90;;;;;;5014786;28;20416;-77
2024/01/11 14:59:14;;;;;;;;;;;-1.50;99.90;;;;;;4995206;28;19924;-77
2024/01/11 15:02:03;;;;;;;;;;;-1.50;99.90;;;;;;5025863;28;19913;-77
2024/01/11 15:04:59;;;;;;;;;;;-1.50;99.90;;;;;;5013541;28;19918;-77
2024/01/11 15:07:51;;;;;;;;;;;-1.50;99.90;;;;;;5013731;28;19914;-77
2024/01/11 15:10:37;;;;;;;;;;;-1.50;99.90;;;;;;5024104;28;20001;-77
2024/01/11 15:13:30;;;;;;;;;;;-1.40;99.90;;;;;;5038314;28;20004;-78
2024/01/11 15:16:19;;;;;;;;;;;-1.40;99.90;;;;;;5040796;28;19967;-77
2024/01/11 15:19:05;;;;;;;;;;;-1.40;99.90;;;;;;5025507;28;19928;-77
2024/01/11 15:21:54;;;;;;;;;;;-1.30;99.90;;;;;;5028071;28;19945;-77
2024/01/11 15:24:40;;;;;;;;;;;-1.30;99.90;;;;;;5017019;28;19975;-77
2024/01/11 15:27:26;;;;;;;;;;;-1.30;99.90;;;;;;5017304;28;19921;-77
2024/01/11 15:30:13;;;;;;;;;;;-1.30;99.90;;;;;;4999185;28;19917;-77
2024/01/11 15:33:22;;;;;;;;;;;-1.20;99.90;;;;;;5013033;28;19914;-77
2024/01/11 15:36:07;;;;;;;;;;;-1.20;99.90;;;;;;5027882;28;19933;-77
2024/01/11 15:38:59;;;;;;;;;;;-1.10;99.90;;;;;;5017859;28;19942;-77
2024/01/11 15:42:10;;;;;;;;;;;-1.10;99.90;;;;;;5006261;28;19972;-75
2024/01/11 15:44:56;;;;;;;;;;;-1.10;99.90;;;;;;5039754;28;20472;-75
2024/01/11 15:47:44;;;;;;;;;;;-1.10;99.90;;;;;;5037857;28;19928;-76
2024/01/11 15:50:30;;;;;;;;;;;-1.10;99.90;;;;;;5038068;28;20059;-75
2024/01/11 15:53:16;;;;;;;;;;;-1.00;99.90;;;;;;5005751;28;20356;-75
2024/01/11 15:56:02;;;;;;;;;;;-1.00;99.90;;;;;;4998151;28;19925;-76
2024/01/11 15:58:51;;;;;;;;;;;-1.00;99.90;;;;;;5027119;28;19933;-75
2024/01/11 16:01:37;;;;;;;;;;;-1.00;99.90;;;;;;5009103;28;19921;-76
2024/01/11 16:04:25;;;;;;;;;;;-1.00;99.90;;;;;;5013913;28;19979;-77
2024/01/11 16:07:11;;;;;;;;;;;-0.90;99.90;;;;;;5013711;28;20326;-76
2024/01/11 16:09:57;;;;;;;;;;;-0.90;99.90;;;;;;5014761;28;19921;-76